sensor_id;sensor_type;location;lat;lon;timestamp;pressure;altitude;pressure_sealevel;temperature;humidity
67430;BME280;54298;52.076;5.264;2023-02-13T00:00:17;103707.0;;;8.48;71.83
67430;BME280;54298;52.076;5.264;2023-02-13T00:01:55;103707.0;;;8.56;71.47
67430;BME280;54298;52.076;5.264;2023-02-13T00:05:10;103708.99999999999;;;8.52;71.17
67430;BME280;54298;52.076;5.264;2023-02-13T00:06:47;103706.0;;;8.55;70.88
67430;BME280;54298;52.076;5.264;2023-02-13T00:08:23;103703.0;;;8.53;70.95
67430;BME280;54298;52.076;5.264;2023-02-13T00:10:00;103706.0;;;8.49;71.17
67430;BME280;54298;52.076;5.264;2023-02-13T00:13:14;103704.0;;;8.58;70.77
67430;BME280;54298;52.076;5.264;2023-02-13T00:14:51;103701.0;;;8.68;70.89
67430;BME280;54298;52.076;5.264;2023-02-13T00:16:28;103704.0;;;8.63;70.61
67430;BME280;54298;52.076;5.264;2023-02-13T00:19:42;103704.0;;;8.59;70.52
67430;BME280;54298;52.076;5.264;2023-02-13T00:21:19;103702.0;;;8.69;70.44
67430;BME280;54298;52.076;5.264;2023-02-13T00:22:57;103700.0;;;8.63;70.44
67430;BME280;54298;52.076;5.264;2023-02-13T00:24:33;103693.0;;;8.68;70.33
67430;BME280;54298;52.076;5.264;2023-02-13T00:27:51;103694.0;;;8.72;70.47
67430;BME280;54298;52.076;5.264;2023-02-13T00:29:29;103693.0;;;8.57;71.17
67430;BME280;54298;52.076;5.264;2023-02-13T00:31:06;103693.0;;;8.6;71.02
67430;BME280;54298;52.076;5.264;2023-02-13T00:34:21;103692.0;;;8.65;70.41
67430;BME280;54298;52.076;5.264;2023-02-13T00:36:02;103693.0;;;8.67;70.83
67430;BME280;54298;52.076;5.264;2023-02-13T00:37:41;103688.00000000001;;;8.49;71.34
67430;BME280;54298;52.076;5.264;2023-02-13T00:39:17;103683.99999999999;;;8.48;71.83
67430;BME280;54298;52.076;5.264;2023-02-13T00:42:30;103688.00000000001;;;8.38;71.41
67430;BME280;54298;52.076;5.264;2023-02-13T00:44:08;103692.0;;;8.32;71.72
67430;BME280;54298;52.076;5.264;2023-02-13T00:45:44;103692.0;;;8.33;71.89
67430;BME280;54298;52.076;5.264;2023-02-13T00:48:57;103691.00000000001;;;8.48;71.64
67430;BME280;54298;52.076;5.264;2023-02-13T00:50:34;103692.0;;;8.56;71.17
67430;BME280;54298;52.076;5.264;2023-02-13T00:52:10;103692.0;;;8.56;70.48
67430;BME280;54298;52.076;5.264;2023-02-13T00:53:47;103683.0;;;8.57;70.59
67430;BME280;54298;52.076;5.264;2023-02-13T00:57:02;103686.99999999999;;;8.55;70.95
67430;BME280;54298;52.076;5.264;2023-02-13T00:58:39;103688.00000000001;;;8.56;70.19
67430;BME280;54298;52.076;5.264;2023-02-13T01:00:16;103689.00000000001;;;8.53;70.81
67430;BME280;54298;52.076;5.264;2023-02-13T01:03:29;103688.00000000001;;;8.49;71.36
67430;BME280;54298;52.076;5.264;2023-02-13T01:05:07;103683.0;;;8.48;71.33
67430;BME280;54298;52.076;5.264;2023-02-13T01:06:43;103683.99999999999;;;8.48;71.42
67430;BME280;54298;52.076;5.264;2023-02-13T01:09:56;103686.99999999999;;;8.51;71.44
67430;BME280;54298;52.076;5.264;2023-02-13T01:11:33;103691.00000000001;;;8.48;71.34
67430;BME280;54298;52.076;5.264;2023-02-13T01:13:10;103683.99999999999;;;8.56;70.95
67430;BME280;54298;52.076;5.264;2023-02-13T01:14:48;103689.00000000001;;;8.52;70.88
67430;BME280;54298;52.076;5.264;2023-02-13T01:18:03;103683.99999999999;;;8.59;70.36
67430;BME280;54298;52.076;5.264;2023-02-13T01:19:40;103683.0;;;8.67;70.22
67430;BME280;54298;52.076;5.264;2023-02-13T01:21:19;103683.0;;;8.63;70.25
67430;BME280;54298;52.076;5.264;2023-02-13T01:24:33;103679.0;;;8.71;69.94
67430;BME280;54298;52.076;5.264;2023-02-13T01:26:15;103678.0;;;8.69;69.84
67430;BME280;54298;52.076;5.264;2023-02-13T01:27:54;103677.0;;;8.81;69.77
67430;BME280;54298;52.076;5.264;2023-02-13T01:29:30;103679.0;;;8.78;69.87
67430;BME280;54298;52.076;5.264;2023-02-13T01:32:45;103677.0;;;8.72;69.5
67430;BME280;54298;52.076;5.264;2023-02-13T01:34:22;103669.0;;;8.81;69.19
67430;BME280;54298;52.076;5.264;2023-02-13T01:36:05;103665.00000000001;;;8.81;69.08
67430;BME280;54298;52.076;5.264;2023-02-13T01:39:19;103670.0;;;8.82;69.08
67430;BME280;54298;52.076;5.264;2023-02-13T01:40:55;103670.0;;;8.73;69.3
67430;BME280;54298;52.076;5.264;2023-02-13T01:42:33;103667.0;;;8.75;69.44
67430;BME280;54298;52.076;5.264;2023-02-13T01:45:23;103671.0;;;8.73;69.55
67430;BME280;54298;52.076;5.264;2023-02-13T01:47:07;103667.0;;;8.82;69.69
67430;BME280;54298;52.076;5.264;2023-02-13T01:48:45;103667.0;;;8.78;70.08
67430;BME280;54298;52.076;5.264;2023-02-13T01:50:28;103666.00000000001;;;8.73;69.69
67430;BME280;54298;52.076;5.264;2023-02-13T01:53:48;103664.00000000001;;;8.73;69.61
67430;BME280;54298;52.076;5.264;2023-02-13T01:55:28;103665.00000000001;;;8.78;69.52
67430;BME280;54298;52.076;5.264;2023-02-13T01:57:11;103666.00000000001;;;8.73;69.69
67430;BME280;54298;52.076;5.264;2023-02-13T01:58:52;103658.99999999999;;;8.76;69.42
67430;BME280;54298;52.076;5.264;2023-02-13T02:02:14;103663.00000000001;;;8.85;69.08
67430;BME280;54298;52.076;5.264;2023-02-13T02:03:54;103661.99999999999;;;8.86;69.28
67430;BME280;54298;52.076;5.264;2023-02-13T02:05:33;103664.00000000001;;;8.69;69.63
67430;BME280;54298;52.076;5.264;2023-02-13T02:07:14;103658.0;;;8.74;69.44
67430;BME280;54298;52.076;5.264;2023-02-13T02:10:40;103658.99999999999;;;8.8;69.52
67430;BME280;54298;52.076;5.264;2023-02-13T02:12:22;103654.0;;;8.75;69.64
67430;BME280;54298;52.076;5.264;2023-02-13T02:14:02;103651.0;;;8.64;70.11
67430;BME280;54298;52.076;5.264;2023-02-13T02:15:40;103650.0;;;8.64;70.12
67430;BME280;54298;52.076;5.264;2023-02-13T02:18:57;103649.0;;;8.74;69.55
67430;BME280;54298;52.076;5.264;2023-02-13T02:23:46;103659.99999999999;;;8.63;70.16
67430;BME280;54298;52.076;5.264;2023-02-13T02:27:04;103658.0;;;8.78;69.8
67430;BME280;54298;52.076;5.264;2023-02-13T02:30:44;103658.0;;;8.56;70.55
67430;BME280;54298;52.076;5.264;2023-02-13T02:34:22;103654.0;;;8.53;71.11
67430;BME280;54298;52.076;5.264;2023-02-13T02:38:17;103653.0;;;8.49;71.28
67430;BME280;54298;52.076;5.264;2023-02-13T02:40:20;103654.0;;;8.61;70.75
67430;BME280;54298;52.076;5.264;2023-02-13T02:42:08;103655.0;;;8.65;70.41
67430;BME280;54298;52.076;5.264;2023-02-13T02:43:58;103651.0;;;8.65;70.02
67430;BME280;54298;52.076;5.264;2023-02-13T02:45:59;103649.0;;;8.59;70.64
67430;BME280;54298;52.076;5.264;2023-02-13T02:50:10;103652.0;;;8.64;70.41
67430;BME280;54298;52.076;5.264;2023-02-13T02:51:58;103653.0;;;8.48;71.36
67430;BME280;54298;52.076;5.264;2023-02-13T02:53:43;103646.0;;;8.48;71.28
67430;BME280;54298;52.076;5.264;2023-02-13T02:55:34;103648.0;;;8.57;70.81
67430;BME280;54298;52.076;5.264;2023-02-13T03:07:17;103638.00000000001;;;8.57;71.05
67430;BME280;54298;52.076;5.264;2023-02-13T03:13:33;103634.99999999999;;;8.65;70.58
67430;BME280;54298;52.076;5.264;2023-02-13T03:15:16;103633.99999999999;;;8.59;70.73
67430;BME280;54298;52.076;5.264;2023-02-13T03:22:30;103640.00000000001;;;8.59;70.73
67430;BME280;54298;52.076;5.264;2023-02-13T03:24:18;103645.0;;;8.47;71.48
67430;BME280;54298;52.076;5.264;2023-02-13T03:26:15;103644.0;;;8.4;71.95
67430;BME280;54298;52.076;5.264;2023-02-13T03:30:39;103646.0;;;8.42;72.11
67430;BME280;54298;52.076;5.264;2023-02-13T03:32:38;103651.0;;;8.48;71.64
67430;BME280;54298;52.076;5.264;2023-02-13T03:34:24;103652.0;;;8.49;71.7
67430;BME280;54298;52.076;5.264;2023-02-13T03:38:27;103653.0;;;8.51;71.48
67430;BME280;54298;52.076;5.264;2023-02-13T03:40:12;103649.0;;;8.33;72.28
67430;BME280;54298;52.076;5.264;2023-02-13T03:41:55;103651.0;;;8.39;72.2
67430;BME280;54298;52.076;5.264;2023-02-13T03:43:40;103648.0;;;8.28;72.83
67430;BME280;54298;52.076;5.264;2023-02-13T03:45:52;103646.0;;;8.22;73.16
67430;BME280;54298;52.076;5.264;2023-02-13T03:47:31;103643.0;;;8.23;73.19
67430;BME280;54298;52.076;5.264;2023-02-13T03:51:54;103645.0;;;8.41;72.42
67430;BME280;54298;52.076;5.264;2023-02-13T03:59:28;103650.0;;;8.28;72.42
67430;BME280;54298;52.076;5.264;2023-02-13T04:01:07;103643.0;;;8.36;72.24
67430;BME280;54298;52.076;5.264;2023-02-13T04:02:53;103644.0;;;8.4;72.48
67430;BME280;54298;52.076;5.264;2023-02-13T04:04:39;103642.0;;;8.5;71.99
67430;BME280;54298;52.076;5.264;2023-02-13T04:06:21;103639.00000000001;;;8.5;71.73
67430;BME280;54298;52.076;5.264;2023-02-13T04:09:41;103636.99999999999;;;8.45;71.7
67430;BME280;54298;52.076;5.264;2023-02-13T04:11:24;103642.0;;;8.42;71.83
67430;BME280;54298;52.076;5.264;2023-02-13T04:13:08;103638.00000000001;;;8.39;71.97
67430;BME280;54298;52.076;5.264;2023-02-13T04:14:56;103639.00000000001;;;8.45;71.91
67430;BME280;54298;52.076;5.264;2023-02-13T04:18:17;103641.00000000001;;;8.32;72.53
67430;BME280;54298;52.076;5.264;2023-02-13T04:19:57;103638.00000000001;;;8.4;72.47
67430;BME280;54298;52.076;5.264;2023-02-13T04:21:36;103634.99999999999;;;8.4;72.39
67430;BME280;54298;52.076;5.264;2023-02-13T04:23:14;103634.99999999999;;;8.36;72.55
67430;BME280;54298;52.076;5.264;2023-02-13T04:26:33;103636.99999999999;;;8.32;72.73
67430;BME280;54298;52.076;5.264;2023-02-13T04:28:11;103638.00000000001;;;8.38;72.66
67430;BME280;54298;52.076;5.264;2023-02-13T04:29:47;103636.99999999999;;;8.41;72.45
67430;BME280;54298;52.076;5.264;2023-02-13T04:31:23;103638.00000000001;;;8.43;72.39
67430;BME280;54298;52.076;5.264;2023-02-13T04:34:36;103640.00000000001;;;8.47;72.05
67430;BME280;54298;52.076;5.264;2023-02-13T04:36:13;103641.00000000001;;;8.39;72.36
67430;BME280;54298;52.076;5.264;2023-02-13T04:37:49;103642.0;;;8.48;71.89
67430;BME280;54298;52.076;5.264;2023-02-13T04:41:01;103640.00000000001;;;8.31;72.7
67430;BME280;54298;52.076;5.264;2023-02-13T04:42:37;103636.99999999999;;;8.32;72.84
67430;BME280;54298;52.076;5.264;2023-02-13T04:44:13;103632.0;;;8.32;72.8
67430;BME280;54298;52.076;5.264;2023-02-13T04:47:27;103634.99999999999;;;8.31;73.0
67430;BME280;54298;52.076;5.264;2023-02-13T04:49:03;103638.00000000001;;;8.45;72.39
67430;BME280;54298;52.076;5.264;2023-02-13T04:50:39;103632.0;;;8.38;72.48
67430;BME280;54298;52.076;5.264;2023-02-13T04:52:15;103634.99999999999;;;8.39;72.72
67430;BME280;54298;52.076;5.264;2023-02-13T04:55:28;103628.0;;;8.44;72.52
67430;BME280;54298;52.076;5.264;2023-02-13T04:57:05;103631.0;;;8.44;72.52
67430;BME280;54298;52.076;5.264;2023-02-13T04:58:41;103628.0;;;8.39;72.58
67430;BME280;54298;52.076;5.264;2023-02-13T05:01:55;103624.0;;;8.44;72.38
67430;BME280;54298;52.076;5.264;2023-02-13T05:03:31;103620.0;;;8.28;73.02
67430;BME280;54298;52.076;5.264;2023-02-13T05:05:07;103616.00000000001;;;8.44;72.47
67430;BME280;54298;52.076;5.264;2023-02-13T05:08:20;103611.99999999999;;;8.43;72.38
67430;BME280;54298;52.076;5.264;2023-02-13T05:09:56;103617.0;;;8.48;72.44
67430;BME280;54298;52.076;5.264;2023-02-13T05:11:32;103611.99999999999;;;8.48;72.31
67430;BME280;54298;52.076;5.264;2023-02-13T05:14:45;103609.99999999999;;;8.47;72.53
67430;BME280;54298;52.076;5.264;2023-02-13T05:16:21;103611.99999999999;;;8.39;72.72
67430;BME280;54298;52.076;5.264;2023-02-13T05:17:57;103615.00000000001;;;8.43;72.69
67430;BME280;54298;52.076;5.264;2023-02-13T05:19:33;103606.0;;;8.4;72.77
67430;BME280;54298;52.076;5.264;2023-02-13T05:25:07;103608.99999999999;;;8.15;74.41
67430;BME280;54298;52.076;5.264;2023-02-13T05:26:44;103605.0;;;8.22;74.62
67430;BME280;54298;52.076;5.264;2023-02-13T05:29:24;103608.0;;;8.2;74.78
67430;BME280;54298;52.076;5.264;2023-02-13T05:31:01;103605.0;;;8.13;74.87
67430;BME280;54298;52.076;5.264;2023-02-13T05:32:37;103605.0;;;8.06;75.19
67430;BME280;54298;52.076;5.264;2023-02-13T05:34:14;103609.99999999999;;;8.03;75.44
67430;BME280;54298;52.076;5.264;2023-02-13T05:37:27;103604.0;;;7.91;75.87
67430;BME280;54298;52.076;5.264;2023-02-13T05:39:03;103608.0;;;7.97;75.88
67430;BME280;54298;52.076;5.264;2023-02-13T05:40:39;103607.0;;;8.05;75.74
67430;BME280;54298;52.076;5.264;2023-02-13T05:43:51;103603.0;;;8.03;75.62
67430;BME280;54298;52.076;5.264;2023-02-13T05:45:27;103606.0;;;7.92;76.13
67430;BME280;54298;52.076;5.264;2023-02-13T05:47:04;103602.0;;;8.02;75.73
67430;BME280;54298;52.076;5.264;2023-02-13T05:50:16;103608.0;;;8.06;75.27
67430;BME280;54298;52.076;5.264;2023-02-13T05:51:52;103606.0;;;8.09;75.05
67430;BME280;54298;52.076;5.264;2023-02-13T05:53:28;103608.99999999999;;;8.14;74.77
67430;BME280;54298;52.076;5.264;2023-02-13T05:55:05;103605.0;;;8.03;75.25
67430;BME280;54298;52.076;5.264;2023-02-13T05:58:19;103609.99999999999;;;8.2;74.8
67430;BME280;54298;52.076;5.264;2023-02-13T05:59:56;103611.99999999999;;;8.28;74.42
67430;BME280;54298;52.076;5.264;2023-02-13T06:01:32;103609.99999999999;;;8.17;75.09
67430;BME280;54298;52.076;5.264;2023-02-13T06:04:45;103611.99999999999;;;8.22;74.8
67430;BME280;54298;52.076;5.264;2023-02-13T06:06:22;103613.00000000001;;;8.18;74.86
67430;BME280;54298;52.076;5.264;2023-02-13T06:07:58;103608.99999999999;;;8.26;74.64
67430;BME280;54298;52.076;5.264;2023-02-13T06:11:10;103607.0;;;8.25;74.52
67430;BME280;54298;52.076;5.264;2023-02-13T06:12:46;103611.99999999999;;;8.19;74.91
67430;BME280;54298;52.076;5.264;2023-02-13T06:14:22;103608.99999999999;;;8.06;75.63
67430;BME280;54298;52.076;5.264;2023-02-13T06:15:59;103609.99999999999;;;8.01;75.87
67430;BME280;54298;52.076;5.264;2023-02-13T06:19:11;103616.00000000001;;;8.02;75.77
67430;BME280;54298;52.076;5.264;2023-02-13T06:20:47;103613.00000000001;;;8.22;75.03
67430;BME280;54298;52.076;5.264;2023-02-13T06:22:23;103609.99999999999;;;8.32;74.62
67430;BME280;54298;52.076;5.264;2023-02-13T06:25:36;103615.00000000001;;;8.33;74.52
67430;BME280;54298;52.076;5.264;2023-02-13T06:27:13;103616.00000000001;;;8.31;74.94
67430;BME280;54298;52.076;5.264;2023-02-13T06:28:49;103614.00000000001;;;8.33;74.99
67430;BME280;54298;52.076;5.264;2023-02-13T06:32:02;103617.0;;;8.28;75.2
67430;BME280;54298;52.076;5.264;2023-02-13T06:33:38;103613.00000000001;;;8.38;74.94
67430;BME280;54298;52.076;5.264;2023-02-13T06:35:15;103617.0;;;8.32;75.05
67430;BME280;54298;52.076;5.264;2023-02-13T06:36:52;103616.00000000001;;;8.23;75.39
67430;BME280;54298;52.076;5.264;2023-02-13T06:40:05;103616.00000000001;;;8.22;75.74
67430;BME280;54298;52.076;5.264;2023-02-13T06:41:42;103617.0;;;8.2;75.84
67430;BME280;54298;52.076;5.264;2023-02-13T06:43:19;103620.0;;;8.3;75.67
67430;BME280;54298;52.076;5.264;2023-02-13T06:46:31;103615.00000000001;;;8.24;75.75
67430;BME280;54298;52.076;5.264;2023-02-13T06:48:07;103613.00000000001;;;8.23;75.64
67430;BME280;54298;52.076;5.264;2023-02-13T06:49:43;103611.99999999999;;;8.19;75.38
67430;BME280;54298;52.076;5.264;2023-02-13T06:52:56;103616.00000000001;;;8.14;75.47
67430;BME280;54298;52.076;5.264;2023-02-13T06:54:32;103617.0;;;8.11;75.58
67430;BME280;54298;52.076;5.264;2023-02-13T06:56:08;103617.0;;;8.19;75.52
67430;BME280;54298;52.076;5.264;2023-02-13T06:59:22;103617.0;;;8.06;75.78
67430;BME280;54298;52.076;5.264;2023-02-13T07:00:59;103620.0;;;8.03;76.16
67430;BME280;54298;52.076;5.264;2023-02-13T07:02:36;103620.0;;;7.95;76.63
67430;BME280;54298;52.076;5.264;2023-02-13T07:04:12;103625.0;;;7.9;76.77
67430;BME280;54298;52.076;5.264;2023-02-13T07:07:27;103625.0;;;7.8;77.19
67430;BME280;54298;52.076;5.264;2023-02-13T07:09:07;103623.0;;;7.84;77.05
67430;BME280;54298;52.076;5.264;2023-02-13T07:10:43;103627.0;;;7.81;77.19
67430;BME280;54298;52.076;5.264;2023-02-13T07:13:56;103620.0;;;7.75;77.19
67430;BME280;54298;52.076;5.264;2023-02-13T07:15:33;103622.0;;;7.79;77.02
67430;BME280;54298;52.076;5.264;2023-02-13T07:17:10;103621.0;;;7.84;76.72
67430;BME280;54298;52.076;5.264;2023-02-13T07:18:46;103625.0;;;7.79;76.77
67430;BME280;54298;52.076;5.264;2023-02-13T07:22:00;103619.0;;;7.69;77.03
67430;BME280;54298;52.076;5.264;2023-02-13T07:23:36;103618.0;;;7.69;77.05
67430;BME280;54298;52.076;5.264;2023-02-13T07:25:12;103620.0;;;7.55;77.63
67430;BME280;54298;52.076;5.264;2023-02-13T07:28:25;103618.0;;;7.53;77.83
67430;BME280;54298;52.076;5.264;2023-02-13T07:30:02;103618.0;;;7.43;78.11
67430;BME280;54298;52.076;5.264;2023-02-13T07:31:39;103620.0;;;7.34;78.44
67430;BME280;54298;52.076;5.264;2023-02-13T07:34:51;103622.0;;;7.26;79.02
67430;BME280;54298;52.076;5.264;2023-02-13T07:36:27;103626.0;;;7.21;79.16
67430;BME280;54298;52.076;5.264;2023-02-13T07:38:03;103623.0;;;7.2;79.52
67430;BME280;54298;52.076;5.264;2023-02-13T07:39:40;103630.0;;;7.17;79.84
67430;BME280;54298;52.076;5.264;2023-02-13T07:42:53;103630.0;;;7.2;79.64
67430;BME280;54298;52.076;5.264;2023-02-13T07:44:29;103629.0;;;7.18;79.69
67430;BME280;54298;52.076;5.264;2023-02-13T07:46:05;103633.99999999999;;;7.17;79.88
67430;BME280;54298;52.076;5.264;2023-02-13T07:49:18;103633.0;;;7.06;80.42
67430;BME280;54298;52.076;5.264;2023-02-13T07:50:54;103638.00000000001;;;7.09;80.33
67430;BME280;54298;52.076;5.264;2023-02-13T07:52:36;103644.0;;;7.11;80.38
67430;BME280;54298;52.076;5.264;2023-02-13T07:55:49;103640.00000000001;;;7.03;80.89
67430;BME280;54298;52.076;5.264;2023-02-13T07:57:25;103648.0;;;7.03;80.98
67430;BME280;54298;52.076;5.264;2023-02-13T07:59:01;103649.0;;;7.06;80.92
67430;BME280;54298;52.076;5.264;2023-02-13T08:00:38;103651.0;;;7.08;80.83
67430;BME280;54298;52.076;5.264;2023-02-13T08:03:51;103654.0;;;7.01;81.23
67430;BME280;54298;52.076;5.264;2023-02-13T08:05:28;103658.0;;;7.02;81.36
67430;BME280;54298;52.076;5.264;2023-02-13T08:07:05;103658.0;;;7.03;81.36
67430;BME280;54298;52.076;5.264;2023-02-13T08:12:09;103667.0;;;6.98;81.64
67430;BME280;54298;52.076;5.264;2023-02-13T08:13:52;103669.0;;;7.02;81.84
67430;BME280;54298;52.076;5.264;2023-02-13T08:15:28;103666.00000000001;;;7.02;81.99
67430;BME280;54298;52.076;5.264;2023-02-13T08:18:40;103670.0;;;7.04;82.06
67430;BME280;54298;52.076;5.264;2023-02-13T08:20:17;103668.0;;;7.2;81.62
67430;BME280;54298;52.076;5.264;2023-02-13T08:21:54;103666.00000000001;;;7.31;81.41
67430;BME280;54298;52.076;5.264;2023-02-13T08:25:06;103658.0;;;7.38;81.08
67430;BME280;54298;52.076;5.264;2023-02-13T08:26:43;103666.00000000001;;;7.4;81.25
67430;BME280;54298;52.076;5.264;2023-02-13T08:28:19;103666.00000000001;;;7.47;81.19
67430;BME280;54298;52.076;5.264;2023-02-13T08:29:55;103673.0;;;7.58;81.19
67430;BME280;54298;52.076;5.264;2023-02-13T08:33:09;103669.0;;;7.7;80.78
67430;BME280;54298;52.076;5.264;2023-02-13T08:34:45;103667.0;;;7.75;80.72
67430;BME280;54298;52.076;5.264;2023-02-13T08:36:21;103661.99999999999;;;7.82;80.62
67430;BME280;54298;52.076;5.264;2023-02-13T08:39:37;103667.0;;;7.82;80.66
67430;BME280;54298;52.076;5.264;2023-02-13T08:41:14;103669.0;;;7.95;80.37
67430;BME280;54298;52.076;5.264;2023-02-13T08:42:50;103667.0;;;8.05;80.13
67430;BME280;54298;52.076;5.264;2023-02-13T08:44:27;103666.00000000001;;;8.13;79.98
67430;BME280;54298;52.076;5.264;2023-02-13T08:47:40;103667.0;;;8.14;79.87
67430;BME280;54298;52.076;5.264;2023-02-13T08:49:17;103669.0;;;8.23;79.59
67430;BME280;54298;52.076;5.264;2023-02-13T08:50:52;103664.00000000001;;;8.23;79.61
67430;BME280;54298;52.076;5.264;2023-02-13T08:54:05;103658.0;;;8.34;79.42
67430;BME280;54298;52.076;5.264;2023-02-13T08:55:41;103661.99999999999;;;8.41;79.22
67430;BME280;54298;52.076;5.264;2023-02-13T08:57:17;103671.0;;;8.49;79.13
67430;BME280;54298;52.076;5.264;2023-02-13T09:00:31;103665.00000000001;;;8.41;79.61
67430;BME280;54298;52.076;5.264;2023-02-13T09:02:08;103665.00000000001;;;8.53;79.19
67430;BME280;54298;52.076;5.264;2023-02-13T09:03:49;103666.00000000001;;;8.55;79.16
67430;BME280;54298;52.076;5.264;2023-02-13T09:05:25;103667.0;;;8.61;78.94
67430;BME280;54298;52.076;5.264;2023-02-13T09:08:39;103668.0;;;8.73;78.44
67430;BME280;54298;52.076;5.264;2023-02-13T09:10:16;103668.0;;;8.75;78.48
67430;BME280;54298;52.076;5.264;2023-02-13T09:11:55;103668.0;;;8.82;78.19
67430;BME280;54298;52.076;5.264;2023-02-13T09:15:11;103668.0;;;8.84;77.84
67430;BME280;54298;52.076;5.264;2023-02-13T09:16:47;103667.0;;;8.86;77.83
67430;BME280;54298;52.076;5.264;2023-02-13T09:18:23;103672.0;;;8.93;77.33
67430;BME280;54298;52.076;5.264;2023-02-13T09:21:35;103670.0;;;9.1;76.52
67430;BME280;54298;52.076;5.264;2023-02-13T09:23:11;103669.0;;;9.11;76.56
67430;BME280;54298;52.076;5.264;2023-02-13T09:24:48;103669.0;;;9.15;76.52
67430;BME280;54298;52.076;5.264;2023-02-13T09:26:24;103666.00000000001;;;9.31;76.19
67430;BME280;54298;52.076;5.264;2023-02-13T09:29:36;103670.0;;;9.31;76.02
67430;BME280;54298;52.076;5.264;2023-02-13T09:31:15;103667.0;;;9.35;75.83
67430;BME280;54298;52.076;5.264;2023-02-13T09:32:53;103663.00000000001;;;9.26;75.3
67430;BME280;54298;52.076;5.264;2023-02-13T09:36:08;103664.00000000001;;;9.28;75.34
67430;BME280;54298;52.076;5.264;2023-02-13T09:37:45;103666.00000000001;;;9.26;75.55
67430;BME280;54298;52.076;5.264;2023-02-13T09:39:22;103657.0;;;9.35;75.19
67430;BME280;54298;52.076;5.264;2023-02-13T09:41:01;103665.00000000001;;;9.43;74.77
67430;BME280;54298;52.076;5.264;2023-02-13T09:44:35;103667.0;;;9.41;74.63
67430;BME280;54298;52.076;5.264;2023-02-13T09:46:17;103668.0;;;9.47;74.11
67430;BME280;54298;52.076;5.264;2023-02-13T09:47:55;103668.0;;;9.42;74.2
67430;BME280;54298;52.076;5.264;2023-02-13T09:49:35;103668.0;;;9.52;74.48
67430;BME280;54298;52.076;5.264;2023-02-13T09:52:54;103657.0;;;9.69;73.84
67430;BME280;54298;52.076;5.264;2023-02-13T09:54:32;103658.99999999999;;;9.63;73.88
67430;BME280;54298;52.076;5.264;2023-02-13T09:56:12;103661.99999999999;;;9.61;73.97
67430;BME280;54298;52.076;5.264;2023-02-13T09:57:57;103663.00000000001;;;9.73;73.52
67430;BME280;54298;52.076;5.264;2023-02-13T10:01:28;103658.0;;;9.77;73.3
67430;BME280;54298;52.076;5.264;2023-02-13T10:03:27;103653.0;;;9.72;73.66
67430;BME280;54298;52.076;5.264;2023-02-13T10:05:15;103654.0;;;9.85;73.37
67430;BME280;54298;52.076;5.264;2023-02-13T10:07:06;103659.99999999999;;;9.96;72.83
67430;BME280;54298;52.076;5.264;2023-02-13T10:08:55;103665.00000000001;;;9.98;72.69
67430;BME280;54298;52.076;5.264;2023-02-13T10:10:49;103664.00000000001;;;10.03;72.39
67430;BME280;54298;52.076;5.264;2023-02-13T10:12:36;103658.99999999999;;;10.02;72.23
67430;BME280;54298;52.076;5.264;2023-02-13T10:16:09;103664.00000000001;;;9.85;72.87
67430;BME280;54298;52.076;5.264;2023-02-13T10:17:53;103656.0;;;10.07;72.34
67430;BME280;54298;52.076;5.264;2023-02-13T10:19:36;103659.99999999999;;;10.17;71.92
67430;BME280;54298;52.076;5.264;2023-02-13T10:21:19;103664.00000000001;;;10.02;72.62
67430;BME280;54298;52.076;5.264;2023-02-13T10:23:04;103661.99999999999;;;10.15;72.3
67430;BME280;54298;52.076;5.264;2023-02-13T10:26:42;103658.0;;;10.14;71.89
67430;BME280;54298;52.076;5.264;2023-02-13T10:28:29;103655.0;;;10.11;71.97
67430;BME280;54298;52.076;5.264;2023-02-13T10:31:59;103651.0;;;10.31;71.3
67430;BME280;54298;52.076;5.264;2023-02-13T10:33:42;103651.0;;;10.18;71.16
67430;BME280;54298;52.076;5.264;2023-02-13T10:35:28;103651.0;;;10.38;70.83
67430;BME280;54298;52.076;5.264;2023-02-13T10:38:55;103647.0;;;10.52;70.44
67430;BME280;54298;52.076;5.264;2023-02-13T10:40:38;103647.0;;;10.09;71.77
67430;BME280;54298;52.076;5.264;2023-02-13T10:42:26;103645.0;;;10.22;71.48
67430;BME280;54298;52.076;5.264;2023-02-13T10:44:26;103651.0;;;10.36;70.77
67430;BME280;54298;52.076;5.264;2023-02-13T10:46:13;103645.0;;;10.45;70.42
67430;BME280;54298;52.076;5.264;2023-02-13T10:48:05;103645.0;;;10.4;70.81
67430;BME280;54298;52.076;5.264;2023-02-13T10:51:42;103642.0;;;10.44;70.73
67430;BME280;54298;52.076;5.264;2023-02-13T10:53:32;103645.0;;;10.55;70.41
67430;BME280;54298;52.076;5.264;2023-02-13T10:55:26;103643.0;;;10.51;70.42
67430;BME280;54298;52.076;5.264;2023-02-13T10:57:15;103639.00000000001;;;10.28;70.42
67430;BME280;54298;52.076;5.264;2023-02-13T10:59:14;103642.0;;;10.54;70.55
67430;BME280;54298;52.076;5.264;2023-02-13T11:00:57;103642.0;;;10.66;70.3
67430;BME280;54298;52.076;5.264;2023-02-13T11:02:36;103642.0;;;10.77;69.28
67430;BME280;54298;52.076;5.264;2023-02-13T11:05:54;103634.99999999999;;;10.66;69.0
67430;BME280;54298;52.076;5.264;2023-02-13T11:07:33;103639.00000000001;;;10.78;68.8
67430;BME280;54298;52.076;5.264;2023-02-13T11:09:12;103641.00000000001;;;10.65;68.91
67430;BME280;54298;52.076;5.264;2023-02-13T11:12:27;103640.00000000001;;;10.65;69.37
67430;BME280;54298;52.076;5.264;2023-02-13T11:14:10;103638.00000000001;;;10.78;68.87
67430;BME280;54298;52.076;5.264;2023-02-13T11:15:56;103631.0;;;10.78;68.8
67430;BME280;54298;52.076;5.264;2023-02-13T11:17:39;103633.99999999999;;;10.94;68.73
67430;BME280;54298;52.076;5.264;2023-02-13T11:19:20;103631.0;;;10.9;68.33
67430;BME280;54298;52.076;5.264;2023-02-13T11:22:39;103630.0;;;11.05;67.63
67430;BME280;54298;52.076;5.264;2023-02-13T11:24:18;103633.0;;;10.89;68.05